Hui Tong — 3FWX2 — position and weather

sailwx.info

Track history (hours):
 
Tides and Currents Weather Stations Pressure Air Temp Water Temp Dewpoint Dewpoint Depression Visibility Wind Speed Wind Dir Waves Ship Positions

Hui Tong

Last reported at 2018-Jan-11 04:30 UTC. Time now 2018-Jan-23 23:42 UTC.
Position N 33°16' E 131°36'.
Warning: this ship's position is 12 days out of date.

Length 100 m; draft 5.8 m.

Type: Cargo ship. MMSI: 370672000.

Date/timePositionNaut miles runAvg speedWind from/ knotsBaromVisibWave heightAir tempDewpointWater temp
2018-Jan-11 04:30N 33°16' E 131°36'  
2018-Jan-05 22:31N 33°15' E 131°44'1 4.6
2018-Jan-05 22:25N 33°16' E 131°44'3 0.3
2018-Jan-05 12:40N 33°19' E 131°46'210.0
2018-Jan-05 12:30N 33°20' E 131°46'7 9.3
2018-Jan-05 11:44N 33°27' E 131°49'4 9.0
2018-Jan-05 11:16N 33°31' E 131°51'15 9.1
2018-Jan-05 09:38N 33°44' E 131°43'1 9.2
2018-Jan-05 09:30N 33°45' E 131°42'5 9.6
2018-Jan-05 08:58N 33°47' E 131°36'510.0
2018-Jan-05 08:29N 33°48' E 131°31'510.1
2018-Jan-05 08:00N 33°49' E 131°25'510.3
2018-Jan-05 07:30N 33°50' E 131°19'510.5
2018-Jan-05 07:00N 33°51' E 131°13'510.4
2018-Jan-05 06:30N 33°54' E 131°07'510.1
2018-Jan-05 06:00N 33°57' E 131°03'4 7.9
2018-Jan-05 05:30N 33°58' E 130°58'4 7.8
2018-Jan-05 05:00N 33°54' E 130°56'3 6.4
2018-Jan-05 04:30N 33°56' E 130°52'4 8.0
2018-Jan-05 04:01N 34°00' E 130°52'4 8.5
2018-Jan-05 03:30N 34°03' E 130°48'4 8.4
2018-Jan-05 03:00N 34°04' E 130°43'4 8.2
2018-Jan-05 02:30N 34°08' E 130°41'5 9.3
2018-Jan-05 02:00N 34°12' E 130°39'5 9.8
2018-Jan-05 01:30N 34°17' E 130°37'  
Track history (hours):
 
Tides and Currents Weather Stations Pressure Air Temp Water Temp Dewpoint Dewpoint Depression Visibility Wind Speed Wind Dir Waves Ship Positions

Hui Tong

Last reported at 2018-Jan-11 04:30 UTC. Time now 2018-Jan-23 23:42 UTC.
Position N 33°16' E 131°36'.
Warning: this ship's position is 12 days out of date.

Length 100 m; draft 5.8 m.

Type: Cargo ship. MMSI: 370672000.

Date/timePositionNaut miles runAvg speedWind from/ knotsBaromVisibWave heightAir tempDewpointWater temp
2018-Jan-11 04:30N 33°16' E 131°36'  
2018-Jan-05 22:31N 33°15' E 131°44'1 4.6
2018-Jan-05 22:25N 33°16' E 131°44'3 0.3
2018-Jan-05 12:40N 33°19' E 131°46'210.0
2018-Jan-05 12:30N 33°20' E 131°46'7 9.3
2018-Jan-05 11:44N 33°27' E 131°49'4 9.0
2018-Jan-05 11:16N 33°31' E 131°51'15 9.1
2018-Jan-05 09:38N 33°44' E 131°43'1 9.2
2018-Jan-05 09:30N 33°45' E 131°42'5 9.6
2018-Jan-05 08:58N 33°47' E 131°36'510.0
2018-Jan-05 08:29N 33°48' E 131°31'510.1
2018-Jan-05 08:00N 33°49' E 131°25'510.3
2018-Jan-05 07:30N 33°50' E 131°19'510.5
2018-Jan-05 07:00N 33°51' E 131°13'510.4
2018-Jan-05 06:30N 33°54' E 131°07'510.1
2018-Jan-05 06:00N 33°57' E 131°03'4 7.9
2018-Jan-05 05:30N 33°58' E 130°58'4 7.8
2018-Jan-05 05:00N 33°54' E 130°56'3 6.4
2018-Jan-05 04:30N 33°56' E 130°52'4 8.0
2018-Jan-05 04:01N 34°00' E 130°52'4 8.5
2018-Jan-05 03:30N 34°03' E 130°48'4 8.4
2018-Jan-05 03:00N 34°04' E 130°43'4 8.2
2018-Jan-05 02:30N 34°08' E 130°41'5 9.3
2018-Jan-05 02:00N 34°12' E 130°39'5 9.8
2018-Jan-05 01:30N 34°17' E 130°37'  

Dump ship's entire track history